Fahri Eksioglu — TCUH — position and weather

sailwx.info

Track history (hours):
 
Tides and Currents Weather Stations Pressure Air Temp Water Temp Dewpoint Dewpoint Depression Visibility Wind Speed Wind Dir Waves Ship Positions

Fahri Eksioglu

Last reported at 2015-Jul-26 06:28 UTC. Time now 2015-Jul-29 18:00 UTC.
Position N 38°45' E 008°46'.

Length 89 m; draft 5.7 m.

Type: Cargo ship. MMSI: 271000450.

Date/timePositionNaut miles runAvg speedWind from/ knotsBaromVisibWave heightAir tempDewpointWater temp
2015-Jul-26 06:28N 38°45' E 008°46'17 8.6
2015-Jul-26 04:25N 38°43' E 009°08'8 9.3
2015-Jul-26 03:32N 38°42' E 009°19'18 9.1
2015-Jul-26 01:33N 38°41' E 009°42'8 8.4
2015-Jul-26 00:33N 38°40' E 009°53'9 8.4
2015-Jul-25 23:28N 38°39' E 010°04'8 8.8
2015-Jul-25 22:33N 38°38' E 010°14'143 8.9
2015-Jul-25 06:33N 38°27' E 013°16'10 9.2
2015-Jul-25 05:30N 38°25' E 013°28'9 9.4
2015-Jul-25 04:33N 38°25' E 013°40'40 9.4
2015-Jul-25 00:20N 38°21' E 014°30'8 9.2
2015-Jul-24 23:26N 38°20' E 014°41'9 9.7
2015-Jul-24 22:33N 38°20' E 014°52'10 9.6
2015-Jul-24 21:33N 38°20' E 015°04'10 9.5
2015-Jul-24 20:33N 38°22' E 015°16'9 9.0
2015-Jul-24 19:33N 38°21' E 015°27'9 8.9
2015-Jul-24 18:33N 38°20' E 015°38'5 5.4
2015-Jul-24 17:33N 38°14' E 015°38'9 9.2
2015-Jul-24 16:33N 38°05' E 015°36'9 9.4
2015-Jul-24 15:33N 37°56' E 015°38'13 9.5
2015-Jul-24 14:09N 37°51' E 015°54'  
Track history (hours):
 
Tides and Currents Weather Stations Pressure Air Temp Water Temp Dewpoint Dewpoint Depression Visibility Wind Speed Wind Dir Waves Ship Positions

Fahri Eksioglu

Last reported at 2015-Jul-26 06:28 UTC. Time now 2015-Jul-29 18:00 UTC.
Position N 38°45' E 008°46'.

Length 89 m; draft 5.7 m.

Type: Cargo ship. MMSI: 271000450.

Date/timePositionNaut miles runAvg speedWind from/ knotsBaromVisibWave heightAir tempDewpointWater temp
2015-Jul-26 06:28N 38°45' E 008°46'17 8.6
2015-Jul-26 04:25N 38°43' E 009°08'8 9.3
2015-Jul-26 03:32N 38°42' E 009°19'18 9.1
2015-Jul-26 01:33N 38°41' E 009°42'8 8.4
2015-Jul-26 00:33N 38°40' E 009°53'9 8.4
2015-Jul-25 23:28N 38°39' E 010°04'8 8.8
2015-Jul-25 22:33N 38°38' E 010°14'143 8.9
2015-Jul-25 06:33N 38°27' E 013°16'10 9.2
2015-Jul-25 05:30N 38°25' E 013°28'9 9.4
2015-Jul-25 04:33N 38°25' E 013°40'40 9.4
2015-Jul-25 00:20N 38°21' E 014°30'8 9.2
2015-Jul-24 23:26N 38°20' E 014°41'9 9.7
2015-Jul-24 22:33N 38°20' E 014°52'10 9.6
2015-Jul-24 21:33N 38°20' E 015°04'10 9.5
2015-Jul-24 20:33N 38°22' E 015°16'9 9.0
2015-Jul-24 19:33N 38°21' E 015°27'9 8.9
2015-Jul-24 18:33N 38°20' E 015°38'5 5.4
2015-Jul-24 17:33N 38°14' E 015°38'9 9.2
2015-Jul-24 16:33N 38°05' E 015°36'9 9.4
2015-Jul-24 15:33N 37°56' E 015°38'13 9.5
2015-Jul-24 14:09N 37°51' E 015°54'  

Dump ship's entire track history